Time;durP1;ratioP1;P1;durP2;ratioP2;P2;SDS_P1;SDS_P2;PMS_P1;PMS_P2;Temp;Humidity;BMP_temperature;BMP_pressure;BME280_temperature;BME280_humidity;BME280_pressure;Samples;Min_cycle;Max_cycle;Signal;HPM_P1;HPM_P2
2022/05/28 00:01:27;;;;;;;9.68;5.53;;;;;;;21.54;86.53;94274.88;5093513;28;20674;-61
2022/05/28 00:03:57;;;;;;;9.82;6.43;;;;;;;21.49;86.88;94272.09;5075374;28;20204;-61
2022/05/28 00:06:24;;;;;;;9.73;6.45;;;;;;;21.74;85.43;94285.91;5093437;28;20250;-61
2022/05/28 00:08:51;;;;;;;9.95;6.18;;;;;;;21.74;85.28;94287.72;5058319;28;20239;-62
2022/05/28 00:11:23;;;;;;;6.93;6.22;;;;;;;21.44;87.10;94263.38;5075246;28;20173;-61
2022/05/28 00:13:50;;;;;;;8.65;5.95;;;;;;;21.04;90.41;94264.50;5093171;28;20678;-61
2022/05/28 00:16:16;;;;;;;14.20;6.28;;;;;;;21.23;89.32;94269.59;5093169;28;20662;-61
2022/05/28 00:18:44;;;;;;;12.60;6.53;;;;;;;21.06;89.77;94268.47;5075157;28;20200;-62
2022/05/28 00:21:11;;;;;;;10.73;6.38;;;;;;;21.00;90.50;94265.88;5074895;28;20196;-60
2022/05/28 00:23:38;;;;;;;11.10;6.97;;;;;;;21.20;88.93;94267.44;5093659;28;20201;-61
2022/05/28 00:26:05;;;;;;;8.65;6.35;;;;;;;21.20;88.14;94272.59;5074564;28;20215;-60
2022/05/28 00:28:31;;;;;;;11.30;7.25;;;;;;;21.05;88.26;94264.28;5092696;28;20208;-61
2022/05/28 00:30:57;;;;;;;11.20;7.20;;;;;;;20.92;87.93;94269.47;5092937;28;20183;-60
2022/05/28 00:33:23;;;;;;;8.50;6.53;;;;;;;20.80;88.91;94251.22;5092688;28;20207;-60
2022/05/28 00:35:50;;;;;;;8.15;6.20;;;;;;;20.69;89.36;94253.59;5092839;28;20173;-61
2022/05/28 00:38:16;;;;;;;14.85;6.50;;;;;;;20.73;89.20;94244.44;5092933;28;20203;-60
2022/05/28 00:40:47;;;;;;;9.98;5.50;;;;;;;20.71;88.74;94243.84;5057721;28;20277;-61
2022/05/28 00:43:13;;;;;;;8.48;6.28;;;;;;;20.70;89.56;94243.09;5092485;28;20673;-60
2022/05/28 00:45:40;;;;;;;7.95;5.95;;;;;;;20.62;89.07;94240.72;5092698;28;20373;-61
2022/05/28 00:48:06;;;;;;;10.65;5.55;;;;;;;20.53;89.98;94223.00;5092678;28;20211;-60
2022/05/28 00:50:34;;;;;;;11.15;6.05;;;;;;;20.43;90.90;94222.63;5092415;28;20174;-60
2022/05/28 00:53:02;;;;;;;11.95;6.80;;;;;;;20.41;92.02;94220.25;5057777;28;20632;-60
2022/05/28 00:55:31;;;;;;;11.02;5.63;;;;;;;20.36;90.97;94219.28;5092455;28;20204;-61
2022/05/28 00:57:58;;;;;;;9.93;5.82;;;;;;;20.41;91.83;94222.84;5073827;28;20204;-60
2022/05/28 01:00:24;;;;;;;9.75;5.75;;;;;;;20.50;91.53;94223.44;5074143;28;20252;-59
2022/05/28 01:02:59;;;;;;;10.70;6.35;;;;;;;20.47;90.97;94209.13;5102180;22;20730;-60
2022/05/28 01:05:42;;;;;;;10.90;6.05;;;;;;;20.40;90.64;94220.47;5092337;28;20172;-60
2022/05/28 01:08:13;;;;;;;11.68;6.68;;;;;;;20.17;92.42;94222.59;5092544;28;20192;-60
2022/05/28 01:10:39;;;;;;;10.98;5.75;;;;;;;19.88;95.19;94234.09;5092366;28;20658;-61
2022/05/28 01:13:11;;;;;;;10.77;5.93;;;;;;;19.61;97.98;94243.59;5092233;28;20207;-60
2022/05/28 01:15:43;;;;;;;11.85;6.30;;;;;;;19.83;96.47;94252.78;5091986;28;20184;-60
2022/05/28 01:18:17;;;;;;;8.18;5.80;;;;;;;19.76;97.60;94248.56;5091875;28;20203;-60
2022/05/28 01:20:53;;;;;;;10.13;5.97;;;;;;;19.64;98.34;94257.84;5091863;28;20256;-61
2022/05/28 01:23:38;;;;;;;12.13;6.20;;;;;;;19.64;98.37;94255.28;5091705;28;20206;-61
2022/05/28 01:26:13;;;;;;;8.45;5.72;;;;;;;19.84;97.23;94258.69;5073530;28;20271;-60
2022/05/28 01:28:44;;;;;;;11.65;6.45;;;;;;;19.48;98.71;94282.22;5091837;28;20349;-60
2022/05/28 01:31:11;;;;;;;10.23;5.65;;;;;;;19.07;100.00;94328.56;5091790;28;20188;-61
2022/05/28 01:33:41;;;;;;;12.15;5.50;;;;;;;18.97;99.13;94322.97;5074071;28;20207;-61
2022/05/28 01:36:09;;;;;;;8.45;4.30;;;;;;;18.90;96.22;94324.72;5091851;28;20712;-59
2022/05/28 01:38:38;;;;;;;6.13;4.38;;;;;;;18.80;96.99;94326.03;5091476;28;20208;-60
2022/05/28 01:41:06;;;;;;;8.18;4.90;;;;;;;18.75;96.89;94325.78;5073215;28;20317;-61
2022/05/28 01:43:37;;;;;;;8.20;4.78;;;;;;;18.83;96.33;94318.72;5091786;28;20265;-60
2022/05/28 01:46:05;;;;;;;8.88;4.55;;;;;;;18.84;95.77;94322.09;5073125;28;20248;-60
2022/05/28 01:48:31;;;;;;;12.50;4.57;;;;;;;19.00;94.43;94322.59;5098890;22;20224;-60
2022/05/28 01:51:00;;;;;;;4.88;4.35;;;;;;;19.04;94.05;94312.72;5091273;28;20172;-59
2022/05/28 01:56:12;;;;;;;6.68;4.68;;;;;;;19.04;94.45;94323.00;5098988;22;20230;-60
2022/05/28 01:58:38;;;;;;;12.38;5.45;;;;;;;19.00;94.44;94314.06;5091448;28;20205;-60
2022/05/28 02:01:06;;;;;;;7.70;4.70;;;;;;;19.20;93.38;94317.56;5091037;28;20212;-60
2022/05/28 02:03:35;;;;;;;6.82;4.75;;;;;;;19.17;93.69;94326.44;5091329;28;20192;-62
2022/05/28 02:06:01;;;;;;;10.35;5.07;;;;;;;19.23;93.23;94322.31;5091765;28;20188;-62
2022/05/28 02:08:46;;;;;;;10.85;5.03;;;;;;;19.43;93.46;94327.63;5090837;28;20317;-61
2022/05/28 02:11:19;;;;;;;14.80;5.22;;;;;;;19.39;91.73;94341.88;5091745;28;20339;-60
2022/05/28 02:13:56;;;;;;;13.82;6.00;;;;;;;19.48;91.58;94341.53;5091172;28;20265;-60
2022/05/28 02:16:40;;;;;;;9.55;5.68;;;;;;;19.33;92.20;94327.97;5072702;28;20207;-61
2022/05/28 02:19:12;;;;;;;9.82;5.57;;;;;;;19.45;91.52;94336.75;5091266;28;20231;-61
2022/05/28 02:21:54;;;;;;;11.23;5.60;;;;;;;19.43;91.33;94343.91;5090873;28;20271;-59
2022/05/28 02:24:45;;;;;;;15.02;5.85;;;;;;;19.57;90.24;94348.13;5090972;28;20204;-60
2022/05/28 02:27:15;;;;;;;11.63;6.00;;;;;;;19.80;89.90;94345.22;5072602;28;20172;-60
2022/05/28 02:29:42;;;;;;;11.00;5.97;;;;;;;19.84;87.86;94356.75;5091196;28;20292;-62
2022/05/28 02:32:17;;;;;;;8.48;5.18;;;;;;;20.09;87.32;94356.03;5091158;28;20184;-60
2022/05/28 02:34:45;;;;;;;13.23;6.50;;;;;;;20.16;85.52;94361.19;5091211;28;20176;-60
2022/05/28 02:37:12;;;;;;;8.60;5.03;;;;;;;19.82;86.88;94340.66;5090721;28;20172;-60
2022/05/28 02:39:38;;;;;;;9.80;5.88;;;;;;;19.93;87.14;94332.38;5090858;28;20290;-60
2022/05/28 02:42:05;;;;;;;11.38;5.28;;;;;;;20.26;83.78;94379.72;5090661;28;20638;-61
2022/05/28 02:44:30;;;;;;;10.52;5.30;;;;;;;20.14;84.72;94360.59;5090428;28;20210;-60
2022/05/28 02:46:56;;;;;;;9.32;4.78;;;;;;;20.00;83.29;94372.69;5090685;28;20172;-59
2022/05/28 02:49:23;;;;;;;11.18;4.57;;;;;;;19.71;82.86;94365.25;5090652;28;20204;-59
2022/05/28 02:51:49;;;;;;;8.52;4.32;;;;;;;19.92;83.04;94348.81;5098506;22;20216;-61
2022/05/28 02:54:14;;;;;;;8.73;3.75;;;;;;;19.79;81.67;94347.03;5085755;28;20572;-59
2022/05/28 02:56:43;;;;;;;8.02;4.18;;;;;;;19.98;81.11;94351.44;5090652;28;20180;-60
2022/05/28 02:59:08;;;;;;;11.95;4.65;;;;;;;19.99;81.31;94354.81;5072352;28;20192;-59
2022/05/28 03:01:34;;;;;;;9.20;4.35;;;;;;;20.27;79.09;94377.94;5090223;28;20207;-60
2022/05/28 03:04:00;;;;;;;10.27;4.68;;;;;;;20.13;80.02;94360.81;5090450;28;20207;-61
2022/05/28 03:06:27;;;;;;;11.57;4.72;;;;;;;19.71;81.76;94354.13;5090539;28;20255;-61
2022/05/28 03:08:54;;;;;;;7.47;4.22;;;;;;;19.72;81.53;94359.09;5072057;28;20203;-61
2022/05/28 03:11:20;;;;;;;7.70;4.20;;;;;;;19.88;82.51;94351.00;5072483;28;20180;-61
2022/05/28 03:13:45;;;;;;;8.68;4.80;;;;;;;19.94;79.67;94377.81;5090424;28;20277;-59
2022/05/28 03:16:12;;;;;;;7.85;4.10;;;;;;;20.19;78.59;94388.41;5090834;28;20203;-59
2022/05/28 03:18:37;;;;;;;9.75;4.82;;;;;;;20.22;78.44;94382.91;5090334;28;20204;-61
2022/05/28 03:21:05;;;;;;;6.80;3.72;;;;;;;20.25;78.00;94385.09;5092759;28;20203;-61
2022/05/28 03:23:30;;;;;;;6.15;3.97;;;;;;;20.45;76.68;94404.81;5094152;28;20200;-61
2022/05/28 03:25:56;;;;;;;7.18;4.15;;;;;;;20.38;76.19;94405.78;5094677;28;20238;-61
2022/05/28 03:28:22;;;;;;;9.43;3.88;;;;;;;20.39;75.89;94415.13;5094101;28;20226;-61
2022/05/28 03:30:48;;;;;;;10.13;5.60;;;;;;;20.36;76.08;94413.72;5076385;28;20242;-61
2022/05/28 03:33:14;;;;;;;7.95;4.25;;;;;;;20.49;76.25;94405.19;5094060;28;20678;-59
2022/05/28 03:35:40;;;;;;;6.03;4.00;;;;;;;20.75;75.92;94405.25;5094444;28;20298;-60
2022/05/28 03:38:06;;;;;;;11.35;3.67;;;;;;;20.75;75.10;94405.25;5094026;28;20200;-60
2022/05/28 03:40:32;;;;;;;16.00;4.90;;;;;;;20.73;75.69;94396.88;5094354;28;20183;-61
2022/05/28 03:42:58;;;;;;;8.65;4.20;;;;;;;20.63;76.20;94380.97;5093995;28;20568;-63
2022/05/28 03:45:26;;;;;;;6.72;4.03;;;;;;;20.68;75.65;94389.75;5094148;28;20184;-63
2022/05/28 03:47:52;;;;;;;9.07;4.65;;;;;;;20.66;76.28;94378.00;5075583;28;20572;-63
2022/05/28 03:50:18;;;;;;;12.57;4.93;;;;;;;20.63;78.00;94352.56;5094102;28;20203;-60
2022/05/28 03:52:43;;;;;;;7.90;4.30;;;;;;;20.60;78.48;94340.84;5093872;28;20262;-61
2022/05/28 03:55:09;;;;;;;9.35;4.72;;;;;;;20.65;78.10;94338.47;5075742;28;20256;-59
2022/05/28 03:57:36;;;;;;;10.90;4.65;;;;;;;20.46;78.18;94333.28;5075222;28;20183;-63
2022/05/28 04:00:01;;;;;;;6.85;4.43;;;;;;;20.30;79.13;94313.03;5075554;28;20248;-60
2022/05/28 04:02:28;;;;;;;6.07;4.78;;;;;;;20.23;80.64;94299.28;5093433;28;20276;-60
2022/05/28 04:04:53;;;;;;;10.25;4.38;;;;;;;20.04;81.35;94286.13;5075392;28;20275;-61
2022/05/28 04:07:20;;;;;;;7.90;4.70;;;;;;;20.05;81.56;94287.75;5093350;28;20168;-61
2022/05/28 04:09:46;;;;;;;7.95;5.13;;;;;;;20.10;81.30;94289.72;5093204;28;20192;-61
2022/05/28 04:12:11;;;;;;;8.90;5.07;;;;;;;20.04;81.68;94285.34;5075061;28;20269;-61
2022/05/28 04:14:38;;;;;;;9.10;5.50;;;;;;;20.02;82.00;94282.94;5093541;28;20224;-65
2022/05/28 04:17:04;;;;;;;9.95;4.63;;;;;;;20.20;81.06;94291.97;5074927;28;20180;-62
2022/05/28 04:19:30;;;;;;;8.80;4.63;;;;;;;20.31;80.47;94299.09;5074927;28;20686;-62
2022/05/28 04:21:56;;;;;;;8.00;4.70;;;;;;;20.34;80.31;94304.66;5093103;28;20196;-63
2022/05/28 04:24:22;;;;;;;7.75;4.38;;;;;;;20.48;79.55;94318.41;5093328;28;20217;-62
2022/05/28 04:26:48;;;;;;;13.35;5.15;;;;;;;20.34;82.04;94288.41;5082575;22;20259;-62
2022/05/28 04:29:13;;;;;;;11.15;5.18;;;;;;;20.01;82.75;94296.88;5093011;28;20196;-62
2022/05/28 04:31:39;;;;;;;12.75;5.88;;;;;;;19.87;85.60;94308.16;5092704;28;20683;-60
2022/05/28 04:34:04;;;;;;;7.88;5.15;;;;;;;19.83;85.77;94332.75;5092664;28;20196;-63
2022/05/28 04:36:30;;;;;;;8.43;4.40;;;;;;;20.10;83.48;94359.41;5092996;28;20279;-60
2022/05/28 04:38:55;;;;;;;12.50;4.15;;;;;;;20.21;81.46;94337.41;5074552;28;20219;-61
2022/05/28 04:41:21;;;;;;;12.75;4.45;;;;;;;20.08;81.00;94314.91;5074745;28;20740;-60
2022/05/28 04:43:46;;;;;;;11.23;4.35;;;;;;;19.82;81.84;94281.31;5092871;28;20257;-61
2022/05/28 04:46:14;;;;;;;12.80;4.75;;;;;;;19.76;83.65;94251.13;5093345;28;20241;-60
2022/05/28 04:48:39;;;;;;;14.82;4.68;;;;;;;19.65;91.13;94231.91;5093042;28;20196;-60
2022/05/28 04:51:06;;;;;;;16.42;5.20;;;;;;;19.62;98.25;94234.84;5093305;28;20241;-60
2022/05/28 04:53:32;;;;;;;13.15;5.38;;;;;;;19.34;100.00;94257.38;5092727;28;20674;-63
2022/05/28 04:55:58;;;;;;;11.57;5.55;;;;;;;18.76;100.00;94279.25;5074581;28;20507;-61
2022/05/28 04:58:24;;;;;;;16.92;5.60;;;;;;;18.91;100.00;94297.97;5092472;28;20196;-60
2022/05/28 05:00:50;;;;;;;12.85;5.57;;;;;;;19.25;100.00;94294.56;5092604;28;20196;-63
2022/05/28 05:03:16;;;;;;;7.55;5.45;;;;;;;19.54;100.00;94302.06;5092219;28;20195;-59
2022/05/28 05:05:42;;;;;;;17.85;5.60;;;;;;;19.39;100.00;94310.94;5092855;28;20272;-60
2022/05/28 05:08:08;;;;;;;12.50;5.85;;;;;;;19.12;100.00;94330.59;5092436;28;20200;-60
2022/05/28 05:10:33;;;;;;;14.63;5.43;;;;;;;19.26;100.00;94343.38;5074074;28;20192;-60
2022/05/28 05:13:00;;;;;;;16.77;6.10;;;;;;;19.66;100.00;94343.56;5074024;28;20218;-61
2022/05/28 05:15:26;;;;;;;13.10;6.97;;;;;;;19.52;100.00;94339.34;5092714;28;20189;-60
2022/05/28 05:17:52;;;;;;;21.63;8.43;;;;;;;19.24;100.00;94344.53;5074403;28;20184;-58
2022/05/28 05:20:18;;;;;;;13.30;7.30;;;;;;;19.02;100.00;94332.72;5092523;28;20617;-60
2022/05/28 05:22:44;;;;;;;18.27;8.52;;;;;;;18.81;100.00;94319.88;5073801;28;20676;-62
2022/05/28 05:25:12;;;;;;;16.52;8.63;;;;;;;18.71;100.00;94327.94;5092040;28;20249;-61
2022/05/28 05:27:38;;;;;;;17.42;9.60;;;;;;;18.53;100.00;94316.50;5092229;28;20195;-60
2022/05/28 05:30:06;;;;;;;17.13;8.48;;;;;;;18.42;100.00;94326.28;5092431;28;20181;-60
2022/05/28 05:32:31;;;;;;;16.60;8.50;;;;;;;18.46;100.00;94326.75;5091915;28;20180;-61
2022/05/28 05:34:57;;;;;;;19.73;9.60;;;;;;;18.49;100.00;94330.72;5091975;28;20176;-59
2022/05/28 05:37:24;;;;;;;16.73;8.98;;;;;;;18.34;100.00;94326.41;5091638;28;20175;-60
2022/05/28 05:39:50;;;;;;;19.80;10.13;;;;;;;17.94;100.00;94339.88;5092061;28;20263;-61
2022/05/28 05:42:16;;;;;;;16.15;9.82;;;;;;;18.06;100.00;94343.56;5091856;28;20268;-62
2022/05/28 05:44:42;;;;;;;15.40;9.70;;;;;;;17.96;100.00;94348.22;5090814;28;20580;-59
2022/05/28 05:47:08;;;;;;;15.57;10.15;;;;;;;17.84;100.00;94344.53;5091897;28;20173;-60
2022/05/28 05:49:34;;;;;;;19.45;10.10;;;;;;;18.20;100.00;94350.44;5073151;28;20219;-61
2022/05/28 05:52:00;;;;;;;15.15;9.70;;;;;;;18.83;100.00;94335.94;5091454;28;20554;-59
2022/05/28 05:54:26;;;;;;;15.20;9.80;;;;;;;19.06;100.00;94341.66;5091327;28;20286;-60
2022/05/28 05:57:00;;;;;;;18.42;10.32;;;;;;;19.18;100.00;94335.78;5091553;28;20656;-60
2022/05/28 05:59:26;;;;;;;20.13;11.27;;;;;;;19.33;100.00;94337.47;5091377;28;20567;-60
2022/05/28 06:01:52;;;;;;;15.18;9.15;;;;;;;19.29;100.00;94342.19;5091335;28;20289;-60
2022/05/28 06:04:18;;;;;;;12.93;8.38;;;;;;;19.23;100.00;94335.19;5091421;28;20200;-60
2022/05/28 06:06:43;;;;;;;14.73;8.07;;;;;;;19.25;100.00;94338.38;5073215;28;20189;-60
2022/05/28 06:09:10;;;;;;;12.45;8.68;;;;;;;19.17;100.00;94328.22;5091405;28;20205;-60
2022/05/28 06:11:35;;;;;;;16.95;9.05;;;;;;;19.40;100.00;94323.63;5073007;28;20222;-59
2022/05/28 06:14:03;;;;;;;12.25;8.50;;;;;;;19.55;100.00;94332.03;5091089;28;20192;-59
2022/05/28 06:16:29;;;;;;;13.80;8.02;;;;;;;19.72;100.00;94317.00;5091070;28;20199;-60
2022/05/28 06:18:55;;;;;;;14.27;8.10;;;;;;;19.77;100.00;94315.47;5072577;28;20682;-60
2022/05/28 06:21:20;;;;;;;11.52;7.65;;;;;;;19.83;100.00;94325.00;5090822;28;20702;-60
2022/05/28 06:23:46;;;;;;;17.70;7.72;;;;;;;19.81;100.00;94311.50;5090861;28;20203;-60
2022/05/28 06:26:12;;;;;;;13.98;8.40;;;;;;;19.87;100.00;94302.19;5090881;28;20249;-59
2022/05/28 06:28:39;;;;;;;12.57;7.45;;;;;;;19.70;100.00;94300.94;5090918;28;20204;-59
2022/05/28 06:31:09;;;;;;;11.80;8.40;;;;;;;19.85;100.00;94284.31;5091245;28;20180;-60
2022/05/28 06:33:36;;;;;;;12.70;7.05;;;;;;;20.05;100.00;94313.56;5072459;28;20546;-59
2022/05/28 06:36:05;;;;;;;13.18;7.00;;;;;;;20.16;100.00;94308.81;5091495;28;20216;-59
2022/05/28 06:38:31;;;;;;;11.40;7.97;;;;;;;20.22;100.00;94311.41;5090713;28;20343;-59
2022/05/28 06:40:57;;;;;;;12.85;7.03;;;;;;;20.20;100.00;94326.28;5091302;28;20245;-59
2022/05/28 06:43:24;;;;;;;12.05;7.25;;;;;;;20.32;100.00;94327.31;5080060;22;20230;-58
2022/05/28 06:45:59;;;;;;;13.55;6.85;;;;;;;20.41;100.00;94294.34;5090854;28;20171;-59
2022/05/28 06:48:25;;;;;;;11.20;6.80;;;;;;;20.56;100.00;94284.63;5090781;28;20216;-60
2022/05/28 06:51:04;;;;;;;11.30;7.00;;;;;;;20.75;100.00;94279.44;5090813;28;20224;-60
2022/05/28 06:53:35;;;;;;;17.00;6.20;;;;;;;20.77;100.00;94290.34;5090751;28;20203;-60
2022/05/28 06:56:01;;;;;;;10.60;6.03;;;;;;;20.92;100.00;94297.91;5092703;28;20188;-60
2022/05/28 06:58:27;;;;;;;13.02;6.35;;;;;;;20.93;100.00;94277.00;5076589;28;20200;-60
2022/05/28 07:00:53;;;;;;;13.90;6.05;;;;;;;21.13;100.00;94265.88;5076486;28;20196;-58
2022/05/28 07:03:21;;;;;;;10.88;5.85;;;;;;;21.23;100.00;94287.69;5094731;28;20690;-60
2022/05/28 07:05:47;;;;;;;8.45;5.53;;;;;;;21.32;100.00;94265.81;5076734;28;20651;-58
2022/05/28 07:08:13;;;;;;;10.68;5.03;;;;;;;21.40;100.00;94327.66;5084520;22;20655;-61
2022/05/28 07:10:45;;;;;;;7.85;4.55;;;;;;;21.50;100.00;94315.09;5093860;28;20182;-61
2022/05/28 07:13:11;;;;;;;8.38;4.35;;;;;;;21.57;100.00;94331.38;5092950;28;20651;-58
2022/05/28 07:15:38;;;;;;;8.65;4.72;;;;;;;21.54;100.00;94290.38;5093723;28;20266;-59
2022/05/28 07:18:04;;;;;;;6.57;4.78;;;;;;;21.66;100.00;94306.84;5076157;28;20268;-60
2022/05/28 07:20:30;;;;;;;7.85;5.00;;;;;;;21.77;100.00;94295.06;5094598;28;20179;-59
2022/05/28 07:22:56;;;;;;;10.77;5.40;;;;;;;21.96;100.00;94296.78;5075887;28;20942;-58
2022/05/28 07:25:24;;;;;;;11.02;5.28;;;;;;;22.05;100.00;94274.03;5075736;28;20265;-59
2022/05/28 07:27:49;;;;;;;12.88;5.93;;;;;;;22.09;100.00;94293.31;5094423;28;20204;-59
2022/05/28 07:30:15;;;;;;;10.20;6.85;;;;;;;22.34;100.00;94260.50;5094176;28;20168;-62
2022/05/28 07:32:41;;;;;;;13.25;6.53;;;;;;;22.55;100.00;94232.41;5075806;28;20579;-59
2022/05/28 07:35:08;;;;;;;13.73;6.80;;;;;;;22.92;100.00;94238.47;5076044;28;20184;-59
2022/05/28 07:37:33;;;;;;;15.10;6.28;;;;;;;23.08;100.00;94226.72;5093971;28;20184;-61
2022/05/28 07:40:07;;;;;;;10.30;5.95;;;;;;;23.44;100.00;94238.91;5094094;28;20227;-58
2022/05/28 07:42:33;;;;;;;12.00;7.18;;;;;;;23.52;100.00;94267.16;5075862;28;20230;-59
2022/05/28 07:44:59;;;;;;;13.55;6.05;;;;;;;23.75;100.00;94278.44;5094177;28;20177;-60
2022/05/28 07:47:24;;;;;;;15.65;6.15;;;;;;;23.73;100.00;94275.28;5075863;28;20230;-62
2022/05/28 07:49:50;;;;;;;9.77;6.32;;;;;;;23.99;100.00;94307.91;5075890;28;20727;-65
2022/05/28 07:52:17;;;;;;;11.45;5.05;;;;;;;24.30;98.63;94338.84;5093759;28;20291;-60
2022/05/28 07:54:43;;;;;;;12.95;5.75;;;;;;;24.39;96.88;94355.75;5093922;28;20606;-60
2022/05/28 07:57:09;;;;;;;12.88;5.18;;;;;;;24.60;96.68;94342.25;5075506;28;20192;-60
2022/05/28 07:59:35;;;;;;;10.35;4.75;;;;;;;24.86;92.47;94399.09;5093575;28;20253;-60
2022/05/28 08:02:01;;;;;;;19.20;10.27;;;;;;;24.62;91.76;94366.22;5093797;28;20216;-59
2022/05/28 08:04:26;;;;;;;14.10;5.07;;;;;;;24.96;88.17;94416.75;5093462;28;20715;-58
2022/05/28 08:06:52;;;;;;;11.35;4.55;;;;;;;25.11;87.31;94405.91;5074384;28;20295;-59
2022/05/28 08:09:17;;;;;;;12.32;5.85;;;;;;;25.03;87.49;94388.03;5093631;28;20738;-60
2022/05/28 08:11:45;;;;;;;12.48;4.97;;;;;;;25.47;86.83;94395.31;5093870;28;20184;-61
2022/05/28 08:14:11;;;;;;;10.52;4.65;;;;;;;25.65;83.90;94429.03;5106683;22;20228;-61
2022/05/28 08:16:36;;;;;;;16.88;6.28;;;;;;;25.69;85.05;94378.09;5093793;28;20176;-59
2022/05/28 08:19:02;;;;;;;12.30;4.53;;;;;;;25.65;85.83;94371.75;5094120;28;20204;-60
2022/05/28 08:24:12;;;;;;;13.38;5.78;;;;;;;25.82;81.87;94414.28;5093406;28;20643;-59
2022/05/28 08:26:39;;;;;;;15.40;6.88;;;;;;;25.78;80.76;94434.78;5093333;28;20176;-60
2022/05/28 08:29:05;;;;;;;11.88;5.35;;;;;;;26.28;80.48;94426.47;5093682;28;20230;-59
2022/05/28 08:31:31;;;;;;;10.48;4.63;;;;;;;26.14;80.21;94428.53;5092920;28;20172;-60
2022/05/28 08:33:58;;;;;;;14.25;4.57;;;;;;;26.29;75.82;94428.84;5093518;28;20204;-61
2022/05/28 08:36:24;;;;;;;11.57;5.40;;;;;;;26.18;79.37;94345.47;5100645;22;20230;-60
2022/05/28 08:38:51;;;;;;;14.00;5.10;;;;;;;26.41;71.87;94434.00;5092982;28;20679;-60
2022/05/28 08:41:27;;;;;;;14.43;9.13;;;;;;;26.30;74.69;94354.03;5074572;28;20222;-61
2022/05/28 08:44:08;;;;;;;12.18;4.65;;;;;;;26.47;67.91;94444.31;5093026;28;20261;-59
2022/05/28 08:46:36;;;;;;;13.07;5.82;;;;;;;26.39;70.74;94374.28;5093033;28;20165;-60
2022/05/28 08:49:04;;;;;;;11.23;4.70;;;;;;;26.52;69.98;94384.41;5092690;28;20180;-60
2022/05/28 08:51:36;;;;;;;9.32;4.70;;;;;;;26.66;66.71;94436.28;5092784;28;20226;-61
2022/05/28 08:54:34;;;;;;;12.93;4.78;;;;;;;26.71;66.28;94444.19;5092632;28;20204;-60
2022/05/28 08:57:07;;;;;;;7.43;4.35;;;;;;;26.80;65.80;94437.63;5074501;28;20271;-61
2022/05/28 08:59:46;;;;;;;9.75;4.07;;;;;;;26.74;65.62;94418.47;5092461;28;20204;-60
2022/05/28 09:02:22;;;;;;;9.80;3.85;;;;;;;25.92;61.77;94469.22;5092466;28;20248;-60
2022/05/28 09:04:50;;;;;;;9.90;4.47;;;;;;;26.46;64.22;94411.41;5092356;28;20207;-60
2022/05/28 09:07:17;;;;;;;11.07;4.93;;;;;;;26.68;61.86;94434.25;5092182;28;20183;-59
2022/05/28 09:09:51;;;;;;;6.95;4.20;;;;;;;27.07;67.10;94321.91;5057740;28;20196;-59
2022/05/28 09:12:28;;;;;;;10.43;4.53;;;;;;;27.24;62.66;94421.91;5074047;28;20183;-60
2022/05/28 09:14:54;;;;;;;12.95;4.75;;;;;;;27.49;65.75;94348.41;5092600;28;20200;-61
2022/05/28 09:17:40;;;;;;;8.63;4.80;;;;;;;27.40;64.57;94340.19;5092253;28;20236;-59
2022/05/28 09:20:20;;;;;;;13.70;6.30;;;;;;;27.56;61.90;94421.34;5092186;28;20176;-61
2022/05/28 09:22:47;;;;;;;15.10;5.40;;;;;;;27.43;57.71;94495.63;5073850;28;20261;-61
2022/05/28 09:25:16;;;;;;;9.68;5.13;;;;;;;27.33;60.66;94383.16;5073679;28;20188;-62
2022/05/28 09:28:04;;;;;;;9.63;5.15;;;;;;;27.67;63.51;94329.84;5092023;28;20202;-60
2022/05/28 09:30:51;;;;;;;15.45;5.65;;;;;;;27.65;59.44;94405.06;5092699;28;20199;-60
2022/05/28 09:33:31;;;;;;;13.73;6.55;;;;;;;27.89;61.98;94346.31;5091762;28;20196;-59
2022/05/28 09:36:02;;;;;;;12.90;6.18;;;;;;;28.02;58.59;94426.19;5073798;28;20187;-60
2022/05/28 09:38:30;;;;;;;12.98;5.13;;;;;;;28.48;58.80;94404.00;5073368;28;20196;-60
2022/05/28 09:41:22;;;;;;;11.30;6.80;;;;;;;28.63;57.86;94414.63;5091561;28;20298;-60
2022/05/28 09:43:52;;;;;;;18.48;6.75;;;;;;;28.68;56.39;94451.34;5091502;28;20200;-59
2022/05/28 09:46:29;;;;;;;15.27;8.23;;;;;;;28.32;58.43;94386.56;5091484;28;20180;-60
2022/05/28 09:49:20;;;;;;;8.30;4.72;;;;;;;28.62;56.08;94426.16;5091298;28;20227;-61
2022/05/28 09:51:53;;;;;;;15.30;5.05;;;;;;;28.88;59.00;94359.91;5091608;28;20255;-59
2022/05/28 09:54:23;;;;;;;13.27;6.75;;;;;;;29.30;58.21;94386.19;5091324;28;20204;-60
2022/05/28 09:56:51;;;;;;;10.95;5.63;;;;;;;29.23;53.17;94493.00;5091633;28;20195;-60
2022/05/28 09:59:43;;;;;;;9.82;5.45;;;;;;;28.83;55.13;94422.69;5091264;28;20262;-60
2022/05/28 10:02:18;;;;;;;10.65;5.78;;;;;;;28.95;56.69;94357.84;5072719;28;20200;-60
2022/05/28 10:05:02;;;;;;;11.45;5.97;;;;;;;28.96;56.63;94364.69;5091029;28;20257;-60
2022/05/28 10:07:41;;;;;;;10.38;5.90;;;;;;;28.47;55.42;94379.66;5091256;28;20203;-61
2022/05/28 10:10:14;;;;;;;11.18;5.65;;;;;;;28.23;56.83;94352.19;5074379;28;20192;-60
2022/05/28 10:12:39;;;;;;;16.73;6.20;;;;;;;28.09;59.81;94275.19;5091342;28;20283;-60
2022/05/28 10:15:16;;;;;;;10.88;7.22;;;;;;;28.20;58.81;94295.94;5090955;28;20734;-60
2022/05/28 10:17:53;;;;;;;10.57;6.05;;;;;;;28.33;60.73;94254.72;5091060;28;20196;-60
2022/05/28 10:20:20;;;;;;;11.25;6.45;;;;;;;28.42;61.75;94233.13;5091400;28;20249;-62
2022/05/28 10:22:48;;;;;;;14.27;7.82;;;;;;;28.57;60.49;94261.25;5073198;28;20215;-62
2022/05/28 10:25:33;;;;;;;22.50;12.88;;;;;;;28.63;60.97;94260.25;5090940;28;20180;-59
2022/05/28 10:27:59;;;;;;;13.88;8.00;;;;;;;28.50;61.88;94226.63;5090810;28;20305;-61
2022/05/28 10:30:57;;;;;;;14.52;7.10;;;;;;;28.65;61.45;94243.25;5090701;28;20263;-59
2022/05/28 10:33:31;;;;;;;18.20;6.45;;;;;;;28.65;60.67;94253.72;5046229;28;20432;-60
2022/05/28 10:36:08;;;;;;;14.13;5.85;;;;;;;28.46;59.18;94283.13;5090855;28;20271;-61
2022/05/28 10:38:34;;;;;;;10.77;6.03;;;;;;;28.24;59.06;94263.03;5090878;28;20188;-61
2022/05/28 10:41:26;;;;;;;9.75;5.30;;;;;;;28.40;58.08;94291.94;5091393;28;20416;-61
2022/05/28 10:43:52;;;;;;;10.43;6.45;;;;;;;28.65;56.46;94331.44;5091091;28;20234;-61
2022/05/28 10:46:39;;;;;;;14.10;6.95;;;;;;;28.89;56.35;94316.97;5090851;28;20295;-59
2022/05/28 10:49:04;;;;;;;13.13;4.70;;;;;;;28.98;54.47;94373.09;5090899;28;20206;-60
2022/05/28 10:51:44;;;;;;;10.95;5.20;;;;;;;29.25;53.21;94405.25;5090870;28;20184;-59
2022/05/28 10:54:22;;;;;;;8.50;5.32;;;;;;;29.62;51.59;94415.72;5090902;28;20196;-60
2022/05/28 10:56:57;;;;;;;11.00;5.40;;;;;;;29.88;52.94;94398.38;5090643;28;20165;-59
2022/05/28 10:59:34;;;;;;;12.65;5.40;;;;;;;30.21;52.89;94383.03;5090825;28;20282;-60
2022/05/28 11:02:29;;;;;;;11.23;4.85;;;;;;;30.39;49.66;94456.06;5090511;28;20287;-60
2022/05/28 11:05:07;;;;;;;11.38;5.05;;;;;;;30.55;45.74;94525.16;5090713;28;20190;-60
2022/05/28 11:07:41;;;;;;;13.57;6.95;;;;;;;30.87;48.19;94438.34;5090712;28;20176;-59
2022/05/28 11:10:09;;;;;;;8.70;5.00;;;;;;;30.95;48.05;94428.13;5091282;28;20188;-62
2022/05/28 11:12:54;;;;;;;11.55;5.53;;;;;;;31.27;44.93;94519.88;5090574;28;20180;-60
2022/05/28 11:15:49;;;;;;;12.05;5.10;;;;;;;31.41;45.53;94487.56;5072637;28;20271;-62
2022/05/28 11:18:36;;;;;;;12.63;4.70;;;;;;;31.12;45.90;94431.31;5090730;28;20204;-60
2022/05/28 11:21:21;;;;;;;10.90;6.30;;;;;;;30.90;45.88;94380.88;5090249;28;20215;-59
2022/05/28 11:24:08;;;;;;;11.65;5.35;;;;;;;30.87;44.17;94409.47;5059415;22;20257;-60
2022/05/28 11:26:56;;;;;;;11.82;5.43;;;;;;;30.32;45.53;94352.41;5050325;28;20232;-60
2022/05/28 11:29:44;;;;;;;9.02;5.28;;;;;;;30.00;46.14;94330.75;5050250;28;20239;-61
2022/05/28 11:32:17;;;;;;;12.73;5.38;;;;;;;29.21;49.14;94251.50;5032455;28;20182;-61
2022/05/28 11:35:23;;;;;;;11.98;5.03;;;;;;;29.23;47.82;94276.38;5094458;22;20256;-60
2022/05/28 11:40:45;;;;;;;8.40;4.72;;;;;;;29.44;49.33;94246.63;5097669;22;20236;-60
2022/05/28 11:43:24;;;;;;;10.88;5.00;;;;;;;29.20;48.15;94265.63;5093853;28;20204;-59
2022/05/28 11:45:56;;;;;;;12.25;5.25;;;;;;;28.77;48.93;94253.53;5075835;28;20168;-60